sensor_id;sensor_type;location;lat;lon;timestamp;P1;durP1;ratioP1;P2;durP2;ratioP2
26774;SDS011;14362;51.902;7.626;2023-10-09T00:00:57;8.98;;;4.43;;
26774;SDS011;14362;51.902;7.626;2023-10-09T00:05:14;8.63;;;4.82;;
26774;SDS011;14362;51.902;7.626;2023-10-09T00:09:23;5.88;;;3.25;;
26774;SDS011;14362;51.902;7.626;2023-10-09T00:13:32;6.15;;;4.32;;
26774;SDS011;14362;51.902;7.626;2023-10-09T00:17:33;8.88;;;3.60;;
26774;SDS011;14362;51.902;7.626;2023-10-09T00:21:36;8.00;;;4.88;;
26774;SDS011;14362;51.902;7.626;2023-10-09T00:25:38;9.40;;;6.55;;
26774;SDS011;14362;51.902;7.626;2023-10-09T00:29:45;10.32;;;7.03;;
26774;SDS011;14362;51.902;7.626;2023-10-09T00:33:48;9.90;;;7.53;;
26774;SDS011;14362;51.902;7.626;2023-10-09T00:37:50;9.25;;;5.25;;
26774;SDS011;14362;51.902;7.626;2023-10-09T00:41:56;14.85;;;8.25;;
26774;SDS011;14362;51.902;7.626;2023-10-09T00:46:00;11.93;;;9.13;;
26774;SDS011;14362;51.902;7.626;2023-10-09T00:50:12;17.35;;;10.90;;
26774;SDS011;14362;51.902;7.626;2023-10-09T00:54:22;20.17;;;11.90;;
26774;SDS011;14362;51.902;7.626;2023-10-09T00:58:28;21.88;;;14.48;;
26774;SDS011;14362;51.902;7.626;2023-10-09T01:02:31;20.00;;;13.55;;
26774;SDS011;14362;51.902;7.626;2023-10-09T01:06:36;21.20;;;15.02;;
26774;SDS011;14362;51.902;7.626;2023-10-09T01:10:45;25.50;;;14.57;;
26774;SDS011;14362;51.902;7.626;2023-10-09T01:14:51;18.08;;;13.82;;
26774;SDS011;14362;51.902;7.626;2023-10-09T01:18:55;21.27;;;14.43;;
26774;SDS011;14362;51.902;7.626;2023-10-09T01:23:01;22.98;;;14.13;;
26774;SDS011;14362;51.902;7.626;2023-10-09T01:27:03;18.35;;;14.10;;
26774;SDS011;14362;51.902;7.626;2023-10-09T01:31:05;22.55;;;14.70;;
26774;SDS011;14362;51.902;7.626;2023-10-09T01:35:06;22.83;;;15.98;;
26774;SDS011;14362;51.902;7.626;2023-10-09T01:39:23;22.13;;;12.57;;
26774;SDS011;14362;51.902;7.626;2023-10-09T01:43:26;28.83;;;15.95;;
26774;SDS011;14362;51.902;7.626;2023-10-09T01:47:27;22.25;;;15.20;;
26774;SDS011;14362;51.902;7.626;2023-10-09T01:51:31;26.17;;;17.23;;
26774;SDS011;14362;51.902;7.626;2023-10-09T01:55:37;20.42;;;16.08;;
26774;SDS011;14362;51.902;7.626;2023-10-09T01:59:40;23.60;;;12.97;;
26774;SDS011;14362;51.902;7.626;2023-10-09T02:03:44;26.52;;;17.10;;
26774;SDS011;14362;51.902;7.626;2023-10-09T02:07:46;26.00;;;18.05;;
26774;SDS011;14362;51.902;7.626;2023-10-09T02:15:53;25.00;;;17.48;;
26774;SDS011;14362;51.902;7.626;2023-10-09T02:19:59;25.38;;;18.20;;
26774;SDS011;14362;51.902;7.626;2023-10-09T02:24:00;28.65;;;19.52;;
26774;SDS011;14362;51.902;7.626;2023-10-09T02:28:05;26.65;;;19.65;;
26774;SDS011;14362;51.902;7.626;2023-10-09T02:32:08;32.28;;;21.70;;
26774;SDS011;14362;51.902;7.626;2023-10-09T02:36:25;32.63;;;22.02;;
26774;SDS011;14362;51.902;7.626;2023-10-09T02:40:28;32.30;;;19.92;;
26774;SDS011;14362;51.902;7.626;2023-10-09T02:44:33;32.47;;;21.88;;
26774;SDS011;14362;51.902;7.626;2023-10-09T02:48:41;30.42;;;21.75;;
26774;SDS011;14362;51.902;7.626;2023-10-09T02:52:47;34.75;;;23.50;;
26774;SDS011;14362;51.902;7.626;2023-10-09T02:56:53;36.42;;;23.98;;
26774;SDS011;14362;51.902;7.626;2023-10-09T03:00:57;29.57;;;22.77;;
26774;SDS011;14362;51.902;7.626;2023-10-09T03:05:00;48.53;;;23.73;;
26774;SDS011;14362;51.902;7.626;2023-10-09T03:09:03;39.85;;;24.92;;
26774;SDS011;14362;51.902;7.626;2023-10-09T03:13:16;36.03;;;25.02;;
26774;SDS011;14362;51.902;7.626;2023-10-09T03:17:19;38.38;;;25.42;;
26774;SDS011;14362;51.902;7.626;2023-10-09T03:21:22;37.65;;;25.80;;
26774;SDS011;14362;51.902;7.626;2023-10-09T03:25:23;42.15;;;24.88;;
26774;SDS011;14362;51.902;7.626;2023-10-09T03:29:25;35.58;;;26.30;;
26774;SDS011;14362;51.902;7.626;2023-10-09T03:33:27;39.00;;;25.52;;
26774;SDS011;14362;51.902;7.626;2023-10-09T03:37:34;37.67;;;25.10;;
26774;SDS011;14362;51.902;7.626;2023-10-09T03:41:35;37.80;;;26.10;;
26774;SDS011;14362;51.902;7.626;2023-10-09T03:45:42;37.08;;;27.42;;
26774;SDS011;14362;51.902;7.626;2023-10-09T03:49:49;37.10;;;26.13;;
26774;SDS011;14362;51.902;7.626;2023-10-09T03:53:53;40.95;;;26.48;;
26774;SDS011;14362;51.902;7.626;2023-10-09T03:57:54;36.17;;;27.58;;
26774;SDS011;14362;51.902;7.626;2023-10-09T04:01:57;39.08;;;27.33;;
26774;SDS011;14362;51.902;7.626;2023-10-09T04:05:58;37.42;;;27.23;;
26774;SDS011;14362;51.902;7.626;2023-10-09T04:10:01;41.08;;;26.23;;
26774;SDS011;14362;51.902;7.626;2023-10-09T04:14:23;40.90;;;26.45;;
26774;SDS011;14362;51.902;7.626;2023-10-09T04:18:32;35.03;;;26.80;;
26774;SDS011;14362;51.902;7.626;2023-10-09T04:22:34;35.28;;;26.38;;
26774;SDS011;14362;51.902;7.626;2023-10-09T04:26:40;37.70;;;27.40;;
26774;SDS011;14362;51.902;7.626;2023-10-09T04:30:45;35.42;;;26.30;;
26774;SDS011;14362;51.902;7.626;2023-10-09T04:34:53;34.47;;;25.30;;
26774;SDS011;14362;51.902;7.626;2023-10-09T04:43:37;39.47;;;26.65;;
26774;SDS011;14362;51.902;7.626;2023-10-09T04:47:44;33.78;;;26.08;;
26774;SDS011;14362;51.902;7.626;2023-10-09T04:51:57;35.33;;;26.13;;
26774;SDS011;14362;51.902;7.626;2023-10-09T04:56:18;36.08;;;25.88;;
26774;SDS011;14362;51.902;7.626;2023-10-09T05:00:25;41.35;;;26.30;;
26774;SDS011;14362;51.902;7.626;2023-10-09T05:04:47;33.30;;;25.38;;
26774;SDS011;14362;51.902;7.626;2023-10-09T05:09:01;37.90;;;25.10;;
26774;SDS011;14362;51.902;7.626;2023-10-09T05:13:15;36.53;;;25.02;;
26774;SDS011;14362;51.902;7.626;2023-10-09T05:17:28;35.70;;;25.23;;
26774;SDS011;14362;51.902;7.626;2023-10-09T05:21:34;32.45;;;25.05;;
26774;SDS011;14362;51.902;7.626;2023-10-09T05:25:45;31.58;;;23.88;;
26774;SDS011;14362;51.902;7.626;2023-10-09T05:29:55;31.63;;;22.83;;
26774;SDS011;14362;51.902;7.626;2023-10-09T05:34:14;31.73;;;24.33;;
26774;SDS011;14362;51.902;7.626;2023-10-09T05:38:20;30.23;;;24.00;;
26774;SDS011;14362;51.902;7.626;2023-10-09T05:42:25;31.73;;;23.70;;
26774;SDS011;14362;51.902;7.626;2023-10-09T05:50:36;31.90;;;23.27;;
26774;SDS011;14362;51.902;7.626;2023-10-09T05:54:58;30.55;;;25.00;;
26774;SDS011;14362;51.902;7.626;2023-10-09T05:59:38;33.50;;;23.60;;
26774;SDS011;14362;51.902;7.626;2023-10-09T06:03:57;32.08;;;22.52;;
26774;SDS011;14362;51.902;7.626;2023-10-09T06:12:14;30.73;;;23.70;;
26774;SDS011;14362;51.902;7.626;2023-10-09T06:16:33;32.35;;;23.88;;
26774;SDS011;14362;51.902;7.626;2023-10-09T06:20:42;32.83;;;24.23;;
26774;SDS011;14362;51.902;7.626;2023-10-09T06:25:08;32.63;;;24.15;;
26774;SDS011;14362;51.902;7.626;2023-10-09T06:29:13;29.73;;;24.10;;
26774;SDS011;14362;51.902;7.626;2023-10-09T06:33:33;31.98;;;24.88;;
26774;SDS011;14362;51.902;7.626;2023-10-09T06:37:54;32.70;;;23.52;;
26774;SDS011;14362;51.902;7.626;2023-10-09T06:42:13;29.92;;;23.92;;
26774;SDS011;14362;51.902;7.626;2023-10-09T06:46:32;34.33;;;23.90;;
26774;SDS011;14362;51.902;7.626;2023-10-09T06:50:44;31.38;;;24.35;;
26774;SDS011;14362;51.902;7.626;2023-10-09T06:54:55;33.80;;;24.33;;
26774;SDS011;14362;51.902;7.626;2023-10-09T06:58:57;31.92;;;24.02;;
26774;SDS011;14362;51.902;7.626;2023-10-09T07:03:00;30.92;;;23.95;;
26774;SDS011;14362;51.902;7.626;2023-10-09T07:07:11;31.58;;;24.65;;
26774;SDS011;14362;51.902;7.626;2023-10-09T07:11:14;32.35;;;24.65;;
26774;SDS011;14362;51.902;7.626;2023-10-09T07:15:30;29.65;;;22.80;;
26774;SDS011;14362;51.902;7.626;2023-10-09T07:19:55;25.65;;;20.75;;
26774;SDS011;14362;51.902;7.626;2023-10-09T07:24:34;31.10;;;23.20;;
26774;SDS011;14362;51.902;7.626;2023-10-09T07:28:43;28.38;;;22.27;;
26774;SDS011;14362;51.902;7.626;2023-10-09T07:32:48;28.42;;;22.73;;
26774;SDS011;14362;51.902;7.626;2023-10-09T07:36:53;25.52;;;22.38;;
26774;SDS011;14362;51.902;7.626;2023-10-09T07:40:56;28.90;;;23.27;;
26774;SDS011;14362;51.902;7.626;2023-10-09T07:45:20;25.02;;;21.30;;
26774;SDS011;14362;51.902;7.626;2023-10-09T07:49:35;27.80;;;21.60;;
26774;SDS011;14362;51.902;7.626;2023-10-09T07:53:38;27.05;;;22.58;;
26774;SDS011;14362;51.902;7.626;2023-10-09T07:57:43;28.10;;;22.10;;
26774;SDS011;14362;51.902;7.626;2023-10-09T08:01:52;31.60;;;23.35;;
26774;SDS011;14362;51.902;7.626;2023-10-09T08:05:54;29.08;;;22.45;;
26774;SDS011;14362;51.902;7.626;2023-10-09T08:10:08;26.50;;;20.80;;
26774;SDS011;14362;51.902;7.626;2023-10-09T08:14:28;30.40;;;21.05;;
26774;SDS011;14362;51.902;7.626;2023-10-09T08:22:45;28.75;;;21.13;;
26774;SDS011;14362;51.902;7.626;2023-10-09T08:26:53;28.60;;;21.58;;
26774;SDS011;14362;51.902;7.626;2023-10-09T08:31:16;27.63;;;21.80;;
26774;SDS011;14362;51.902;7.626;2023-10-09T08:35:34;25.17;;;20.85;;
26774;SDS011;14362;51.902;7.626;2023-10-09T08:39:48;28.25;;;21.05;;
26774;SDS011;14362;51.902;7.626;2023-10-09T08:43:51;27.02;;;21.45;;
26774;SDS011;14362;51.902;7.626;2023-10-09T08:47:53;25.35;;;21.30;;
26774;SDS011;14362;51.902;7.626;2023-10-09T08:51:55;26.60;;;20.95;;
26774;SDS011;14362;51.902;7.626;2023-10-09T08:55:56;27.52;;;21.48;;
26774;SDS011;14362;51.902;7.626;2023-10-09T08:59:59;24.33;;;20.35;;
26774;SDS011;14362;51.902;7.626;2023-10-09T09:04:01;29.20;;;21.58;;
26774;SDS011;14362;51.902;7.626;2023-10-09T09:08:03;27.73;;;21.08;;
26774;SDS011;14362;51.902;7.626;2023-10-09T09:12:04;30.70;;;21.10;;
26774;SDS011;14362;51.902;7.626;2023-10-09T09:16:16;28.65;;;20.80;;
26774;SDS011;14362;51.902;7.626;2023-10-09T09:20:18;24.30;;;20.08;;
26774;SDS011;14362;51.902;7.626;2023-10-09T09:24:22;25.50;;;20.30;;
26774;SDS011;14362;51.902;7.626;2023-10-09T09:28:33;29.23;;;20.98;;
26774;SDS011;14362;51.902;7.626;2023-10-09T09:32:40;28.10;;;20.75;;
26774;SDS011;14362;51.902;7.626;2023-10-09T09:37:01;30.90;;;20.73;;
26774;SDS011;14362;51.902;7.626;2023-10-09T09:41:04;24.48;;;20.48;;
26774;SDS011;14362;51.902;7.626;2023-10-09T09:45:07;28.42;;;19.90;;
26774;SDS011;14362;51.902;7.626;2023-10-09T09:49:12;25.00;;;19.87;;
26774;SDS011;14362;51.902;7.626;2023-10-09T09:53:16;27.85;;;19.33;;
26774;SDS011;14362;51.902;7.626;2023-10-09T09:57:18;25.75;;;19.42;;
26774;SDS011;14362;51.902;7.626;2023-10-09T10:01:28;23.00;;;20.10;;
26774;SDS011;14362;51.902;7.626;2023-10-09T10:05:33;26.05;;;20.10;;
26774;SDS011;14362;51.902;7.626;2023-10-09T10:09:34;25.35;;;20.02;;
26774;SDS011;14362;51.902;7.626;2023-10-09T10:13:54;25.80;;;19.70;;
26774;SDS011;14362;51.902;7.626;2023-10-09T10:18:08;22.33;;;19.80;;
26774;SDS011;14362;51.902;7.626;2023-10-09T10:22:24;24.65;;;19.73;;
26774;SDS011;14362;51.902;7.626;2023-10-09T10:26:27;27.02;;;19.88;;
26774;SDS011;14362;51.902;7.626;2023-10-09T10:30:30;26.80;;;20.33;;
26774;SDS011;14362;51.902;7.626;2023-10-09T10:39:00;25.17;;;19.80;;
26774;SDS011;14362;51.902;7.626;2023-10-09T10:47:13;25.80;;;19.45;;
26774;SDS011;14362;51.902;7.626;2023-10-09T10:51:24;25.33;;;19.55;;
26774;SDS011;14362;51.902;7.626;2023-10-09T10:55:36;27.38;;;19.60;;
26774;SDS011;14362;51.902;7.626;2023-10-09T10:59:49;23.75;;;18.95;;
26774;SDS011;14362;51.902;7.626;2023-10-09T11:04:10;24.17;;;19.37;;
26774;SDS011;14362;51.902;7.626;2023-10-09T11:08:12;23.40;;;19.27;;
26774;SDS011;14362;51.902;7.626;2023-10-09T11:12:16;25.67;;;19.90;;
26774;SDS011;14362;51.902;7.626;2023-10-09T11:16:23;28.83;;;20.00;;
26774;SDS011;14362;51.902;7.626;2023-10-09T11:20:41;26.17;;;20.00;;
26774;SDS011;14362;51.902;7.626;2023-10-09T11:24:56;26.00;;;20.75;;
26774;SDS011;14362;51.902;7.626;2023-10-09T11:29:14;26.40;;;19.83;;
26774;SDS011;14362;51.902;7.626;2023-10-09T11:33:23;24.55;;;19.52;;
26774;SDS011;14362;51.902;7.626;2023-10-09T11:37:29;24.70;;;19.15;;
26774;SDS011;14362;51.902;7.626;2023-10-09T11:41:39;26.48;;;19.10;;
26774;SDS011;14362;51.902;7.626;2023-10-09T11:45:42;29.88;;;19.45;;
26774;SDS011;14362;51.902;7.626;2023-10-09T11:49:55;27.30;;;17.65;;
26774;SDS011;14362;51.902;7.626;2023-10-09T11:54:16;23.13;;;19.33;;
26774;SDS011;14362;51.902;7.626;2023-10-09T11:58:30;22.80;;;18.73;;
26774;SDS011;14362;51.902;7.626;2023-10-09T12:02:33;26.02;;;19.40;;
26774;SDS011;14362;51.902;7.626;2023-10-09T12:06:43;22.83;;;17.88;;
26774;SDS011;14362;51.902;7.626;2023-10-09T12:10:45;26.80;;;18.20;;
26774;SDS011;14362;51.902;7.626;2023-10-09T12:14:48;24.27;;;18.52;;
26774;SDS011;14362;51.902;7.626;2023-10-09T12:18:53;24.73;;;18.15;;
26774;SDS011;14362;51.902;7.626;2023-10-09T12:22:54;22.10;;;18.77;;
26774;SDS011;14362;51.902;7.626;2023-10-09T12:26:57;24.42;;;17.83;;
26774;SDS011;14362;51.902;7.626;2023-10-09T12:30:59;24.35;;;17.55;;
26774;SDS011;14362;51.902;7.626;2023-10-09T12:35:02;21.75;;;17.42;;
26774;SDS011;14362;51.902;7.626;2023-10-09T12:39:08;21.83;;;17.10;;
26774;SDS011;14362;51.902;7.626;2023-10-09T12:43:17;24.88;;;17.52;;
26774;SDS011;14362;51.902;7.626;2023-10-09T12:47:19;23.60;;;17.77;;
26774;SDS011;14362;51.902;7.626;2023-10-09T12:51:22;27.70;;;17.35;;
26774;SDS011;14362;51.902;7.626;2023-10-09T12:55:29;27.65;;;17.65;;
26774;SDS011;14362;51.902;7.626;2023-10-09T12:59:32;25.60;;;16.83;;
26774;SDS011;14362;51.902;7.626;2023-10-09T13:03:35;20.15;;;15.40;;
26774;SDS011;14362;51.902;7.626;2023-10-09T13:07:39;22.25;;;16.27;;
26774;SDS011;14362;51.902;7.626;2023-10-09T13:11:41;24.98;;;15.60;;
26774;SDS011;14362;51.902;7.626;2023-10-09T13:15:42;26.50;;;16.27;;
26774;SDS011;14362;51.902;7.626;2023-10-09T13:19:43;25.38;;;16.20;;
26774;SDS011;14362;51.902;7.626;2023-10-09T13:23:46;23.60;;;16.55;;
26774;SDS011;14362;51.902;7.626;2023-10-09T13:27:47;24.50;;;16.80;;
26774;SDS011;14362;51.902;7.626;2023-10-09T13:31:50;25.23;;;16.30;;
26774;SDS011;14362;51.902;7.626;2023-10-09T13:35:57;22.40;;;15.65;;
26774;SDS011;14362;51.902;7.626;2023-10-09T13:40:00;25.13;;;17.05;;
26774;SDS011;14362;51.902;7.626;2023-10-09T13:44:09;25.50;;;16.20;;
26774;SDS011;14362;51.902;7.626;2023-10-09T13:48:10;21.75;;;15.48;;
26774;SDS011;14362;51.902;7.626;2023-10-09T13:52:12;23.73;;;15.60;;
26774;SDS011;14362;51.902;7.626;2023-10-09T13:56:20;21.90;;;15.55;;
26774;SDS011;14362;51.902;7.626;2023-10-09T14:00:21;22.08;;;15.18;;
26774;SDS011;14362;51.902;7.626;2023-10-09T14:04:34;25.02;;;15.45;;
26774;SDS011;14362;51.902;7.626;2023-10-09T14:08:35;26.65;;;14.68;;
26774;SDS011;14362;51.902;7.626;2023-10-09T14:12:43;23.20;;;14.45;;
26774;SDS011;14362;51.902;7.626;2023-10-09T14:16:45;24.23;;;15.57;;
26774;SDS011;14362;51.902;7.626;2023-10-09T14:20:47;24.42;;;13.88;;
26774;SDS011;14362;51.902;7.626;2023-10-09T14:24:50;20.95;;;13.93;;
26774;SDS011;14362;51.902;7.626;2023-10-09T14:28:56;23.58;;;14.63;;
26774;SDS011;14362;51.902;7.626;2023-10-09T14:32:58;20.80;;;13.93;;
26774;SDS011;14362;51.902;7.626;2023-10-09T14:37:01;20.67;;;15.18;;
26774;SDS011;14362;51.902;7.626;2023-10-09T14:41:03;19.58;;;15.35;;
26774;SDS011;14362;51.902;7.626;2023-10-09T14:45:09;22.15;;;15.38;;
26774;SDS011;14362;51.902;7.626;2023-10-09T14:49:15;24.48;;;16.58;;
26774;SDS011;14362;51.902;7.626;2023-10-09T14:53:21;26.13;;;16.38;;
26774;SDS011;14362;51.902;7.626;2023-10-09T14:57:26;25.23;;;16.55;;
26774;SDS011;14362;51.902;7.626;2023-10-09T15:01:29;22.23;;;15.88;;
26774;SDS011;14362;51.902;7.626;2023-10-09T15:05:33;23.17;;;16.13;;
26774;SDS011;14362;51.902;7.626;2023-10-09T15:09:35;23.85;;;17.27;;
26774;SDS011;14362;51.902;7.626;2023-10-09T15:13:37;26.92;;;17.15;;
26774;SDS011;14362;51.902;7.626;2023-10-09T15:17:41;24.05;;;15.35;;
26774;SDS011;14362;51.902;7.626;2023-10-09T15:21:43;24.30;;;15.45;;
26774;SDS011;14362;51.902;7.626;2023-10-09T15:25:45;23.92;;;16.08;;
26774;SDS011;14362;51.902;7.626;2023-10-09T15:29:51;21.13;;;16.00;;
26774;SDS011;14362;51.902;7.626;2023-10-09T15:33:54;24.67;;;14.98;;
26774;SDS011;14362;51.902;7.626;2023-10-09T15:37:56;22.20;;;14.38;;
26774;SDS011;14362;51.902;7.626;2023-10-09T15:41:57;19.35;;;15.15;;
26774;SDS011;14362;51.902;7.626;2023-10-09T15:45:58;22.58;;;15.32;;
26774;SDS011;14362;51.902;7.626;2023-10-09T15:50:01;26.33;;;14.75;;
26774;SDS011;14362;51.902;7.626;2023-10-09T15:54:03;18.67;;;13.82;;
26774;SDS011;14362;51.902;7.626;2023-10-09T15:58:04;20.98;;;14.27;;
26774;SDS011;14362;51.902;7.626;2023-10-09T16:02:08;17.33;;;13.02;;
26774;SDS011;14362;51.902;7.626;2023-10-09T16:06:12;17.83;;;13.27;;
26774;SDS011;14362;51.902;7.626;2023-10-09T16:10:15;19.92;;;13.13;;
26774;SDS011;14362;51.902;7.626;2023-10-09T16:14:17;18.23;;;12.43;;
26774;SDS011;14362;51.902;7.626;2023-10-09T16:18:19;21.73;;;13.30;;
26774;SDS011;14362;51.902;7.626;2023-10-09T16:22:22;22.83;;;14.02;;
26774;SDS011;14362;51.902;7.626;2023-10-09T16:26:24;19.53;;;13.07;;
26774;SDS011;14362;51.902;7.626;2023-10-09T16:30:26;22.75;;;12.68;;
26774;SDS011;14362;51.902;7.626;2023-10-09T16:34:28;23.73;;;13.35;;
26774;SDS011;14362;51.902;7.626;2023-10-09T16:38:31;20.67;;;12.85;;
26774;SDS011;14362;51.902;7.626;2023-10-09T16:42:35;19.52;;;12.05;;
26774;SDS011;14362;51.902;7.626;2023-10-09T16:46:38;20.10;;;12.63;;
26774;SDS011;14362;51.902;7.626;2023-10-09T16:50:40;19.15;;;12.02;;
26774;SDS011;14362;51.902;7.626;2023-10-09T16:54:42;17.95;;;12.05;;
26774;SDS011;14362;51.902;7.626;2023-10-09T16:58:44;20.15;;;11.15;;
26774;SDS011;14362;51.902;7.626;2023-10-09T17:02:45;20.50;;;11.98;;
26774;SDS011;14362;51.902;7.626;2023-10-09T17:06:47;18.88;;;11.00;;
26774;SDS011;14362;51.902;7.626;2023-10-09T17:10:52;17.73;;;11.93;;
26774;SDS011;14362;51.902;7.626;2023-10-09T17:14:54;18.60;;;11.27;;
26774;SDS011;14362;51.902;7.626;2023-10-09T17:18:56;18.65;;;11.20;;
26774;SDS011;14362;51.902;7.626;2023-10-09T17:23:00;20.27;;;11.93;;
26774;SDS011;14362;51.902;7.626;2023-10-09T17:27:02;16.75;;;10.90;;
26774;SDS011;14362;51.902;7.626;2023-10-09T17:31:08;16.85;;;11.18;;
26774;SDS011;14362;51.902;7.626;2023-10-09T17:35:10;23.15;;;11.68;;
26774;SDS011;14362;51.902;7.626;2023-10-09T17:39:11;19.30;;;11.70;;
26774;SDS011;14362;51.902;7.626;2023-10-09T17:43:14;18.30;;;11.30;;
26774;SDS011;14362;51.902;7.626;2023-10-09T17:47:15;17.23;;;11.32;;
26774;SDS011;14362;51.902;7.626;2023-10-09T17:51:17;16.35;;;10.75;;
26774;SDS011;14362;51.902;7.626;2023-10-09T17:55:19;15.00;;;10.73;;
26774;SDS011;14362;51.902;7.626;2023-10-09T17:59:21;17.90;;;11.07;;
26774;SDS011;14362;51.902;7.626;2023-10-09T18:03:23;19.83;;;10.88;;
26774;SDS011;14362;51.902;7.626;2023-10-09T18:07:27;17.30;;;10.23;;
26774;SDS011;14362;51.902;7.626;2023-10-09T18:11:29;15.75;;;10.93;;
26774;SDS011;14362;51.902;7.626;2023-10-09T18:15:31;19.50;;;11.02;;
26774;SDS011;14362;51.902;7.626;2023-10-09T18:19:33;19.73;;;11.05;;
26774;SDS011;14362;51.902;7.626;2023-10-09T18:23:38;19.50;;;11.32;;
26774;SDS011;14362;51.902;7.626;2023-10-09T18:27:44;18.98;;;11.05;;
26774;SDS011;14362;51.902;7.626;2023-10-09T18:31:47;13.80;;;9.73;;
26774;SDS011;14362;51.902;7.626;2023-10-09T18:35:49;15.93;;;11.80;;
26774;SDS011;14362;51.902;7.626;2023-10-09T18:39:51;13.73;;;10.82;;
26774;SDS011;14362;51.902;7.626;2023-10-09T18:43:52;15.98;;;12.13;;
26774;SDS011;14362;51.902;7.626;2023-10-09T18:47:57;18.75;;;12.73;;
26774;SDS011;14362;51.902;7.626;2023-10-09T18:51:58;20.42;;;12.50;;
26774;SDS011;14362;51.902;7.626;2023-10-09T18:55:59;19.90;;;13.00;;
26774;SDS011;14362;51.902;7.626;2023-10-09T19:00:01;15.40;;;11.95;;
26774;SDS011;14362;51.902;7.626;2023-10-09T19:04:05;17.38;;;11.52;;
26774;SDS011;14362;51.902;7.626;2023-10-09T19:08:08;15.82;;;11.65;;
26774;SDS011;14362;51.902;7.626;2023-10-09T19:12:09;16.77;;;12.13;;
26774;SDS011;14362;51.902;7.626;2023-10-09T19:16:10;25.13;;;13.27;;
26774;SDS011;14362;51.902;7.626;2023-10-09T19:20:13;15.65;;;12.50;;
26774;SDS011;14362;51.902;7.626;2023-10-09T19:24:16;16.23;;;12.43;;
26774;SDS011;14362;51.902;7.626;2023-10-09T19:28:19;17.55;;;12.65;;
26774;SDS011;14362;51.902;7.626;2023-10-09T19:32:21;20.05;;;12.88;;
26774;SDS011;14362;51.902;7.626;2023-10-09T19:36:23;24.30;;;14.63;;
26774;SDS011;14362;51.902;7.626;2023-10-09T19:40:26;23.15;;;14.85;;
26774;SDS011;14362;51.902;7.626;2023-10-09T19:44:27;24.08;;;16.58;;
26774;SDS011;14362;51.902;7.626;2023-10-09T19:48:29;22.33;;;16.50;;
26774;SDS011;14362;51.902;7.626;2023-10-09T19:52:34;23.37;;;15.80;;
26774;SDS011;14362;51.902;7.626;2023-10-09T19:56:35;23.23;;;16.38;;
26774;SDS011;14362;51.902;7.626;2023-10-09T20:00:37;25.95;;;17.17;;
26774;SDS011;14362;51.902;7.626;2023-10-09T20:04:39;21.67;;;16.40;;
26774;SDS011;14362;51.902;7.626;2023-10-09T20:08:42;18.52;;;15.98;;
26774;SDS011;14362;51.902;7.626;2023-10-09T20:12:43;20.58;;;16.63;;
26774;SDS011;14362;51.902;7.626;2023-10-09T20:16:44;21.55;;;17.20;;
26774;SDS011;14362;51.902;7.626;2023-10-09T20:20:48;24.45;;;17.60;;
26774;SDS011;14362;51.902;7.626;2023-10-09T20:24:50;24.23;;;17.58;;
26774;SDS011;14362;51.902;7.626;2023-10-09T20:28:52;26.50;;;17.65;;
26774;SDS011;14362;51.902;7.626;2023-10-09T20:32:53;28.42;;;17.42;;
26774;SDS011;14362;51.902;7.626;2023-10-09T20:36:54;26.63;;;17.73;;
26774;SDS011;14362;51.902;7.626;2023-10-09T20:40:58;25.88;;;16.25;;
26774;SDS011;14362;51.902;7.626;2023-10-09T20:45:00;24.40;;;16.70;;
26774;SDS011;14362;51.902;7.626;2023-10-09T20:49:01;19.88;;;15.45;;
26774;SDS011;14362;51.902;7.626;2023-10-09T20:53:03;21.98;;;15.10;;
26774;SDS011;14362;51.902;7.626;2023-10-09T20:57:05;23.50;;;16.45;;
26774;SDS011;14362;51.902;7.626;2023-10-09T21:01:07;19.98;;;15.63;;
26774;SDS011;14362;51.902;7.626;2023-10-09T21:05:14;25.77;;;15.98;;
26774;SDS011;14362;51.902;7.626;2023-10-09T21:09:15;22.17;;;16.50;;
26774;SDS011;14362;51.902;7.626;2023-10-09T21:13:18;20.40;;;15.75;;
26774;SDS011;14362;51.902;7.626;2023-10-09T21:17:19;25.60;;;16.45;;
26774;SDS011;14362;51.902;7.626;2023-10-09T21:21:21;25.65;;;17.52;;
26774;SDS011;14362;51.902;7.626;2023-10-09T21:25:22;24.63;;;17.80;;
26774;SDS011;14362;51.902;7.626;2023-10-09T21:29:25;25.48;;;18.00;;
26774;SDS011;14362;51.902;7.626;2023-10-09T21:33:26;22.80;;;18.70;;
26774;SDS011;14362;51.902;7.626;2023-10-09T21:37:29;24.63;;;17.88;;
26774;SDS011;14362;51.902;7.626;2023-10-09T21:41:30;22.90;;;17.23;;
26774;SDS011;14362;51.902;7.626;2023-10-09T21:45:35;25.58;;;19.08;;
26774;SDS011;14362;51.902;7.626;2023-10-09T21:49:36;23.60;;;17.83;;
26774;SDS011;14362;51.902;7.626;2023-10-09T21:53:38;21.42;;;17.30;;
26774;SDS011;14362;51.902;7.626;2023-10-09T21:57:39;27.33;;;18.67;;
26774;SDS011;14362;51.902;7.626;2023-10-09T22:01:42;23.45;;;17.98;;
26774;SDS011;14362;51.902;7.626;2023-10-09T22:05:43;21.42;;;17.70;;
26774;SDS011;14362;51.902;7.626;2023-10-09T22:09:44;26.85;;;18.85;;
26774;SDS011;14362;51.902;7.626;2023-10-09T22:13:46;24.38;;;18.20;;
26774;SDS011;14362;51.902;7.626;2023-10-09T22:17:48;20.95;;;16.95;;
26774;SDS011;14362;51.902;7.626;2023-10-09T22:21:50;33.42;;;18.33;;
26774;SDS011;14362;51.902;7.626;2023-10-09T22:25:56;27.63;;;17.65;;
26774;SDS011;14362;51.902;7.626;2023-10-09T22:30:00;25.10;;;17.25;;
26774;SDS011;14362;51.902;7.626;2023-10-09T22:34:06;26.13;;;17.85;;
26774;SDS011;14362;51.902;7.626;2023-10-09T22:38:11;25.83;;;17.00;;
26774;SDS011;14362;51.902;7.626;2023-10-09T22:42:14;24.35;;;16.60;;
26774;SDS011;14362;51.902;7.626;2023-10-09T22:46:17;26.83;;;18.50;;
26774;SDS011;14362;51.902;7.626;2023-10-09T22:50:23;29.33;;;18.23;;
26774;SDS011;14362;51.902;7.626;2023-10-09T22:54:33;22.65;;;17.45;;
26774;SDS011;14362;51.902;7.626;2023-10-09T22:58:35;24.70;;;19.48;;
26774;SDS011;14362;51.902;7.626;2023-10-09T23:02:37;27.02;;;19.17;;
26774;SDS011;14362;51.902;7.626;2023-10-09T23:06:57;23.30;;;19.13;;
26774;SDS011;14362;51.902;7.626;2023-10-09T23:11:12;28.05;;;19.05;;
26774;SDS011;14362;51.902;7.626;2023-10-09T23:15:14;22.23;;;17.67;;
26774;SDS011;14362;51.902;7.626;2023-10-09T23:19:42;30.98;;;19.15;;
26774;SDS011;14362;51.902;7.626;2023-10-09T23:23:45;23.13;;;18.13;;
26774;SDS011;14362;51.902;7.626;2023-10-09T23:27:48;25.10;;;19.63;;
26774;SDS011;14362;51.902;7.626;2023-10-09T23:31:50;28.63;;;20.42;;
26774;SDS011;14362;51.902;7.626;2023-10-09T23:35:59;25.35;;;18.95;;
26774;SDS011;14362;51.902;7.626;2023-10-09T23:40:05;29.20;;;20.73;;
26774;SDS011;14362;51.902;7.626;2023-10-09T23:44:13;27.50;;;20.55;;
26774;SDS011;14362;51.902;7.626;2023-10-09T23:48:20;23.52;;;19.30;;
26774;SDS011;14362;51.902;7.626;2023-10-09T23:52:25;26.95;;;20.73;;
26774;SDS011;14362;51.902;7.626;2023-10-09T23:56:29;30.25;;;21.77;;
